sensor_id;sensor_type;location;lat;lon;timestamp;P1;durP1;ratioP1;P2;durP2;ratioP2
81396;SDS011;70852;49.908;8.126;2023-08-17T00:00:43;5.93;;;2.17;;
81396;SDS011;70852;49.908;8.126;2023-08-17T00:03:11;5.05;;;2.13;;
81396;SDS011;70852;49.908;8.126;2023-08-17T00:05:36;9.45;;;2.20;;
81396;SDS011;70852;49.908;8.126;2023-08-17T00:08:02;6.45;;;2.10;;
81396;SDS011;70852;49.908;8.126;2023-08-17T00:10:27;11.57;;;3.08;;
81396;SDS011;70852;49.908;8.126;2023-08-17T00:12:53;3.45;;;2.10;;
81396;SDS011;70852;49.908;8.126;2023-08-17T00:15:21;3.70;;;1.98;;
81396;SDS011;70852;49.908;8.126;2023-08-17T00:17:49;5.28;;;2.35;;
81396;SDS011;70852;49.908;8.126;2023-08-17T00:20:17;7.10;;;2.58;;
81396;SDS011;70852;49.908;8.126;2023-08-17T00:22:44;4.82;;;2.60;;
81396;SDS011;70852;49.908;8.126;2023-08-17T00:25:12;5.32;;;2.53;;
81396;SDS011;70852;49.908;8.126;2023-08-17T00:27:38;6.40;;;2.70;;
81396;SDS011;70852;49.908;8.126;2023-08-17T00:30:05;4.97;;;2.55;;
81396;SDS011;70852;49.908;8.126;2023-08-17T00:32:31;8.43;;;2.58;;
81396;SDS011;70852;49.908;8.126;2023-08-17T00:34:59;4.70;;;2.53;;
81396;SDS011;70852;49.908;8.126;2023-08-17T00:37:24;5.97;;;2.90;;
81396;SDS011;70852;49.908;8.126;2023-08-17T00:39:52;4.60;;;2.45;;
81396;SDS011;70852;49.908;8.126;2023-08-17T00:42:19;5.20;;;2.60;;
81396;SDS011;70852;49.908;8.126;2023-08-17T00:44:46;4.85;;;2.60;;
81396;SDS011;70852;49.908;8.126;2023-08-17T00:47:16;16.02;;;3.38;;
81396;SDS011;70852;49.908;8.126;2023-08-17T00:49:42;3.95;;;2.50;;
81396;SDS011;70852;49.908;8.126;2023-08-17T00:52:07;6.85;;;2.65;;
81396;SDS011;70852;49.908;8.126;2023-08-17T00:54:35;4.45;;;2.60;;
81396;SDS011;70852;49.908;8.126;2023-08-17T00:57:03;11.02;;;2.53;;
81396;SDS011;70852;49.908;8.126;2023-08-17T00:59:31;5.53;;;2.75;;
81396;SDS011;70852;49.908;8.126;2023-08-17T01:01:59;5.38;;;2.78;;
81396;SDS011;70852;49.908;8.126;2023-08-17T01:04:24;4.60;;;2.25;;
81396;SDS011;70852;49.908;8.126;2023-08-17T01:06:54;8.05;;;2.63;;
81396;SDS011;70852;49.908;8.126;2023-08-17T01:09:22;4.07;;;2.67;;
81396;SDS011;70852;49.908;8.126;2023-08-17T01:11:49;4.35;;;2.58;;
81396;SDS011;70852;49.908;8.126;2023-08-17T01:14:27;5.82;;;2.60;;
81396;SDS011;70852;49.908;8.126;2023-08-17T01:17:03;5.57;;;2.95;;
81396;SDS011;70852;49.908;8.126;2023-08-17T01:19:38;5.20;;;2.35;;
81396;SDS011;70852;49.908;8.126;2023-08-17T01:22:08;5.45;;;2.35;;
81396;SDS011;70852;49.908;8.126;2023-08-17T01:24:35;8.18;;;2.70;;
81396;SDS011;70852;49.908;8.126;2023-08-17T01:27:03;7.75;;;3.20;;
81396;SDS011;70852;49.908;8.126;2023-08-17T01:29:28;5.57;;;3.13;;
81396;SDS011;70852;49.908;8.126;2023-08-17T01:31:58;5.15;;;3.20;;
81396;SDS011;70852;49.908;8.126;2023-08-17T01:34:25;7.22;;;3.67;;
81396;SDS011;70852;49.908;8.126;2023-08-17T01:37:00;6.65;;;3.38;;
81396;SDS011;70852;49.908;8.126;2023-08-17T01:39:32;12.57;;;6.07;;
81396;SDS011;70852;49.908;8.126;2023-08-17T01:42:04;11.18;;;6.55;;
81396;SDS011;70852;49.908;8.126;2023-08-17T01:44:31;14.23;;;8.18;;
81396;SDS011;70852;49.908;8.126;2023-08-17T01:46:59;15.00;;;8.07;;
81396;SDS011;70852;49.908;8.126;2023-08-17T01:49:34;12.27;;;7.05;;
81396;SDS011;70852;49.908;8.126;2023-08-17T01:51:59;12.25;;;7.13;;
81396;SDS011;70852;49.908;8.126;2023-08-17T01:54:25;12.25;;;7.65;;
81396;SDS011;70852;49.908;8.126;2023-08-17T01:56:56;12.75;;;8.00;;
81396;SDS011;70852;49.908;8.126;2023-08-17T01:59:21;13.23;;;7.93;;
81396;SDS011;70852;49.908;8.126;2023-08-17T02:01:49;15.20;;;8.27;;
81396;SDS011;70852;49.908;8.126;2023-08-17T02:04:17;17.00;;;7.72;;
81396;SDS011;70852;49.908;8.126;2023-08-17T02:06:42;15.80;;;9.13;;
81396;SDS011;70852;49.908;8.126;2023-08-17T02:09:10;16.58;;;8.55;;
81396;SDS011;70852;49.908;8.126;2023-08-17T02:11:35;22.80;;;9.35;;
81396;SDS011;70852;49.908;8.126;2023-08-17T02:14:00;18.73;;;9.02;;
81396;SDS011;70852;49.908;8.126;2023-08-17T02:16:26;22.10;;;9.07;;
81396;SDS011;70852;49.908;8.126;2023-08-17T02:18:53;19.30;;;9.55;;
81396;SDS011;70852;49.908;8.126;2023-08-17T02:21:19;20.10;;;8.73;;
81396;SDS011;70852;49.908;8.126;2023-08-17T02:23:44;20.50;;;9.98;;
81396;SDS011;70852;49.908;8.126;2023-08-17T02:26:11;20.20;;;9.73;;
81396;SDS011;70852;49.908;8.126;2023-08-17T02:28:37;18.25;;;9.15;;
81396;SDS011;70852;49.908;8.126;2023-08-17T02:31:02;15.77;;;9.02;;
81396;SDS011;70852;49.908;8.126;2023-08-17T02:33:27;19.75;;;9.32;;
81396;SDS011;70852;49.908;8.126;2023-08-17T02:35:53;18.90;;;9.95;;
81396;SDS011;70852;49.908;8.126;2023-08-17T02:38:20;19.73;;;9.55;;
81396;SDS011;70852;49.908;8.126;2023-08-17T02:40:46;20.23;;;10.43;;
81396;SDS011;70852;49.908;8.126;2023-08-17T02:43:14;18.63;;;10.77;;
81396;SDS011;70852;49.908;8.126;2023-08-17T02:45:39;22.52;;;10.73;;
81396;SDS011;70852;49.908;8.126;2023-08-17T02:48:05;13.73;;;9.00;;
81396;SDS011;70852;49.908;8.126;2023-08-17T02:50:30;18.42;;;10.40;;
81396;SDS011;70852;49.908;8.126;2023-08-17T02:52:56;16.85;;;9.57;;
81396;SDS011;70852;49.908;8.126;2023-08-17T02:55:24;14.38;;;9.02;;
81396;SDS011;70852;49.908;8.126;2023-08-17T02:57:50;15.90;;;9.32;;
81396;SDS011;70852;49.908;8.126;2023-08-17T03:00:15;18.35;;;9.20;;
81396;SDS011;70852;49.908;8.126;2023-08-17T03:02:40;14.50;;;8.75;;
81396;SDS011;70852;49.908;8.126;2023-08-17T03:05:08;17.02;;;9.68;;
81396;SDS011;70852;49.908;8.126;2023-08-17T03:07:33;16.15;;;9.98;;
81396;SDS011;70852;49.908;8.126;2023-08-17T03:09:58;19.40;;;10.00;;
81396;SDS011;70852;49.908;8.126;2023-08-17T03:12:24;18.25;;;10.20;;
81396;SDS011;70852;49.908;8.126;2023-08-17T03:14:51;17.60;;;8.75;;
81396;SDS011;70852;49.908;8.126;2023-08-17T03:17:16;18.08;;;9.18;;
81396;SDS011;70852;49.908;8.126;2023-08-17T03:19:44;16.55;;;9.13;;
81396;SDS011;70852;49.908;8.126;2023-08-17T03:22:09;19.00;;;9.30;;
81396;SDS011;70852;49.908;8.126;2023-08-17T03:24:35;20.40;;;9.52;;
81396;SDS011;70852;49.908;8.126;2023-08-17T03:27:00;20.90;;;10.90;;
81396;SDS011;70852;49.908;8.126;2023-08-17T03:29:25;18.75;;;10.20;;
81396;SDS011;70852;49.908;8.126;2023-08-17T03:31:51;19.67;;;9.68;;
81396;SDS011;70852;49.908;8.126;2023-08-17T03:34:17;20.50;;;10.23;;
81396;SDS011;70852;49.908;8.126;2023-08-17T03:36:45;20.50;;;11.10;;
81396;SDS011;70852;49.908;8.126;2023-08-17T03:39:12;20.00;;;10.48;;
81396;SDS011;70852;49.908;8.126;2023-08-17T03:41:37;19.20;;;10.65;;
81396;SDS011;70852;49.908;8.126;2023-08-17T03:44:03;20.45;;;10.77;;
81396;SDS011;70852;49.908;8.126;2023-08-17T03:46:33;19.25;;;9.95;;
81396;SDS011;70852;49.908;8.126;2023-08-17T03:48:58;20.20;;;11.05;;
81396;SDS011;70852;49.908;8.126;2023-08-17T03:51:28;20.17;;;11.32;;
81396;SDS011;70852;49.908;8.126;2023-08-17T03:53:53;20.27;;;11.52;;
81396;SDS011;70852;49.908;8.126;2023-08-17T03:56:18;21.08;;;10.73;;
81396;SDS011;70852;49.908;8.126;2023-08-17T03:58:44;20.98;;;11.25;;
81396;SDS011;70852;49.908;8.126;2023-08-17T04:01:12;25.55;;;11.25;;
81396;SDS011;70852;49.908;8.126;2023-08-17T04:03:38;23.48;;;11.50;;
81396;SDS011;70852;49.908;8.126;2023-08-17T04:06:06;21.42;;;10.93;;
81396;SDS011;70852;49.908;8.126;2023-08-17T04:08:35;20.95;;;10.50;;
81396;SDS011;70852;49.908;8.126;2023-08-17T04:11:00;20.40;;;10.50;;
81396;SDS011;70852;49.908;8.126;2023-08-17T04:13:25;23.80;;;11.38;;
81396;SDS011;70852;49.908;8.126;2023-08-17T04:15:52;18.83;;;9.80;;
81396;SDS011;70852;49.908;8.126;2023-08-17T04:18:17;21.13;;;10.52;;
81396;SDS011;70852;49.908;8.126;2023-08-17T04:20:43;18.85;;;10.25;;
81396;SDS011;70852;49.908;8.126;2023-08-17T04:23:08;18.73;;;10.80;;
81396;SDS011;70852;49.908;8.126;2023-08-17T04:25:33;19.75;;;10.95;;
81396;SDS011;70852;49.908;8.126;2023-08-17T04:27:59;16.52;;;8.68;;
81396;SDS011;70852;49.908;8.126;2023-08-17T04:30:24;20.20;;;9.02;;
81396;SDS011;70852;49.908;8.126;2023-08-17T04:32:49;17.73;;;8.88;;
81396;SDS011;70852;49.908;8.126;2023-08-17T04:35:17;17.77;;;8.27;;
81396;SDS011;70852;49.908;8.126;2023-08-17T04:37:43;13.73;;;7.63;;
81396;SDS011;70852;49.908;8.126;2023-08-17T04:40:09;13.55;;;8.02;;
81396;SDS011;70852;49.908;8.126;2023-08-17T04:42:35;15.88;;;7.90;;
81396;SDS011;70852;49.908;8.126;2023-08-17T04:45:00;14.70;;;6.70;;
81396;SDS011;70852;49.908;8.126;2023-08-17T04:47:26;9.55;;;5.70;;
81396;SDS011;70852;49.908;8.126;2023-08-17T04:49:51;8.75;;;5.40;;
81396;SDS011;70852;49.908;8.126;2023-08-17T04:52:16;8.18;;;5.82;;
81396;SDS011;70852;49.908;8.126;2023-08-17T04:54:44;8.15;;;4.97;;
81396;SDS011;70852;49.908;8.126;2023-08-17T04:57:10;8.77;;;5.30;;
81396;SDS011;70852;49.908;8.126;2023-08-17T04:59:35;8.57;;;5.45;;
81396;SDS011;70852;49.908;8.126;2023-08-17T05:02:01;8.77;;;5.82;;
81396;SDS011;70852;49.908;8.126;2023-08-17T05:04:26;10.30;;;6.53;;
81396;SDS011;70852;49.908;8.126;2023-08-17T05:06:52;9.95;;;5.93;;
81396;SDS011;70852;49.908;8.126;2023-08-17T05:09:17;10.48;;;6.13;;
81396;SDS011;70852;49.908;8.126;2023-08-17T05:11:42;11.18;;;6.45;;
81396;SDS011;70852;49.908;8.126;2023-08-17T05:14:08;11.05;;;6.18;;
81396;SDS011;70852;49.908;8.126;2023-08-17T05:16:34;10.68;;;6.28;;
81396;SDS011;70852;49.908;8.126;2023-08-17T05:18:59;8.77;;;5.85;;
81396;SDS011;70852;49.908;8.126;2023-08-17T05:21:27;11.45;;;6.30;;
81396;SDS011;70852;49.908;8.126;2023-08-17T05:23:52;8.85;;;6.00;;
81396;SDS011;70852;49.908;8.126;2023-08-17T05:26:18;12.02;;;5.95;;
81396;SDS011;70852;49.908;8.126;2023-08-17T05:28:43;8.00;;;4.95;;
81396;SDS011;70852;49.908;8.126;2023-08-17T05:31:09;8.23;;;4.68;;
81396;SDS011;70852;49.908;8.126;2023-08-17T05:33:39;6.40;;;4.18;;
81396;SDS011;70852;49.908;8.126;2023-08-17T05:36:07;8.48;;;4.07;;
81396;SDS011;70852;49.908;8.126;2023-08-17T05:38:38;6.43;;;3.83;;
81396;SDS011;70852;49.908;8.126;2023-08-17T05:41:03;6.55;;;4.03;;
81396;SDS011;70852;49.908;8.126;2023-08-17T05:43:28;6.65;;;4.50;;
81396;SDS011;70852;49.908;8.126;2023-08-17T05:45:53;7.18;;;4.75;;
81396;SDS011;70852;49.908;8.126;2023-08-17T05:48:22;7.15;;;4.70;;
81396;SDS011;70852;49.908;8.126;2023-08-17T05:50:48;7.13;;;3.95;;
81396;SDS011;70852;49.908;8.126;2023-08-17T05:53:13;8.50;;;3.85;;
81396;SDS011;70852;49.908;8.126;2023-08-17T05:55:39;6.30;;;3.55;;
81396;SDS011;70852;49.908;8.126;2023-08-17T05:58:06;5.35;;;3.03;;
81396;SDS011;70852;49.908;8.126;2023-08-17T06:00:34;5.05;;;2.97;;
81396;SDS011;70852;49.908;8.126;2023-08-17T06:03:00;8.07;;;3.05;;
81396;SDS011;70852;49.908;8.126;2023-08-17T06:05:28;4.47;;;2.83;;
81396;SDS011;70852;49.908;8.126;2023-08-17T06:07:57;7.43;;;3.00;;
81396;SDS011;70852;49.908;8.126;2023-08-17T06:10:23;5.35;;;2.95;;
81396;SDS011;70852;49.908;8.126;2023-08-17T06:12:54;4.30;;;2.42;;
81396;SDS011;70852;49.908;8.126;2023-08-17T06:15:20;3.67;;;2.17;;
81396;SDS011;70852;49.908;8.126;2023-08-17T06:17:46;6.68;;;2.30;;
81396;SDS011;70852;49.908;8.126;2023-08-17T06:20:14;4.82;;;2.20;;
81396;SDS011;70852;49.908;8.126;2023-08-17T06:22:40;3.50;;;1.80;;
81396;SDS011;70852;49.908;8.126;2023-08-17T06:25:06;4.63;;;1.77;;
81396;SDS011;70852;49.908;8.126;2023-08-17T06:27:35;7.45;;;4.32;;
81396;SDS011;70852;49.908;8.126;2023-08-17T06:30:00;10.23;;;5.28;;
81396;SDS011;70852;49.908;8.126;2023-08-17T06:32:29;12.48;;;6.00;;
81396;SDS011;70852;49.908;8.126;2023-08-17T06:34:55;8.05;;;5.30;;
81396;SDS011;70852;49.908;8.126;2023-08-17T06:37:20;7.40;;;5.75;;
81396;SDS011;70852;49.908;8.126;2023-08-17T06:39:46;8.30;;;4.97;;
81396;SDS011;70852;49.908;8.126;2023-08-17T06:42:11;5.40;;;3.80;;
81396;SDS011;70852;49.908;8.126;2023-08-17T06:44:39;7.30;;;4.32;;
81396;SDS011;70852;49.908;8.126;2023-08-17T06:47:04;6.90;;;4.43;;
81396;SDS011;70852;49.908;8.126;2023-08-17T06:49:30;7.82;;;4.53;;
81396;SDS011;70852;49.908;8.126;2023-08-17T06:51:56;6.28;;;4.18;;
81396;SDS011;70852;49.908;8.126;2023-08-17T06:54:23;8.15;;;5.53;;
81396;SDS011;70852;49.908;8.126;2023-08-17T06:56:48;8.10;;;5.18;;
81396;SDS011;70852;49.908;8.126;2023-08-17T06:59:14;7.88;;;5.10;;
81396;SDS011;70852;49.908;8.126;2023-08-17T07:01:39;8.35;;;5.38;;
81396;SDS011;70852;49.908;8.126;2023-08-17T07:04:04;9.07;;;5.43;;
81396;SDS011;70852;49.908;8.126;2023-08-17T07:06:30;8.75;;;5.68;;
81396;SDS011;70852;49.908;8.126;2023-08-17T07:08:55;8.07;;;5.60;;
81396;SDS011;70852;49.908;8.126;2023-08-17T07:11:21;10.35;;;5.57;;
81396;SDS011;70852;49.908;8.126;2023-08-17T07:13:47;10.00;;;5.43;;
81396;SDS011;70852;49.908;8.126;2023-08-17T07:16:12;8.18;;;5.82;;
81396;SDS011;70852;49.908;8.126;2023-08-17T07:18:38;8.50;;;5.03;;
81396;SDS011;70852;49.908;8.126;2023-08-17T07:21:03;8.82;;;5.50;;
81396;SDS011;70852;49.908;8.126;2023-08-17T07:23:31;8.05;;;5.15;;
81396;SDS011;70852;49.908;8.126;2023-08-17T07:25:57;8.07;;;5.72;;
81396;SDS011;70852;49.908;8.126;2023-08-17T07:28:22;7.85;;;5.35;;
81396;SDS011;70852;49.908;8.126;2023-08-17T07:30:47;7.50;;;4.95;;
81396;SDS011;70852;49.908;8.126;2023-08-17T07:33:12;7.05;;;5.22;;
81396;SDS011;70852;49.908;8.126;2023-08-17T07:35:38;7.30;;;5.07;;
81396;SDS011;70852;49.908;8.126;2023-08-17T07:38:03;8.52;;;5.03;;
81396;SDS011;70852;49.908;8.126;2023-08-17T07:40:31;8.48;;;5.00;;
81396;SDS011;70852;49.908;8.126;2023-08-17T07:42:56;7.38;;;5.07;;
81396;SDS011;70852;49.908;8.126;2023-08-17T07:45:21;7.53;;;4.20;;
81396;SDS011;70852;49.908;8.126;2023-08-17T07:47:46;7.20;;;4.55;;
81396;SDS011;70852;49.908;8.126;2023-08-17T07:50:12;6.57;;;4.20;;
81396;SDS011;70852;49.908;8.126;2023-08-17T07:52:37;6.43;;;4.47;;
81396;SDS011;70852;49.908;8.126;2023-08-17T07:55:03;8.15;;;4.43;;
81396;SDS011;70852;49.908;8.126;2023-08-17T07:57:28;5.97;;;4.40;;
81396;SDS011;70852;49.908;8.126;2023-08-17T07:59:58;5.80;;;4.05;;
81396;SDS011;70852;49.908;8.126;2023-08-17T08:02:23;6.70;;;4.80;;
81396;SDS011;70852;49.908;8.126;2023-08-17T08:04:51;6.38;;;3.88;;
81396;SDS011;70852;49.908;8.126;2023-08-17T08:07:16;7.00;;;4.45;;
81396;SDS011;70852;49.908;8.126;2023-08-17T08:09:42;5.90;;;3.85;;
81396;SDS011;70852;49.908;8.126;2023-08-17T08:12:07;5.72;;;3.75;;
81396;SDS011;70852;49.908;8.126;2023-08-17T08:14:35;6.55;;;3.72;;
81396;SDS011;70852;49.908;8.126;2023-08-17T08:17:00;5.68;;;4.45;;
81396;SDS011;70852;49.908;8.126;2023-08-17T08:19:31;5.60;;;3.72;;
81396;SDS011;70852;49.908;8.126;2023-08-17T08:21:57;6.90;;;4.45;;
81396;SDS011;70852;49.908;8.126;2023-08-17T08:24:23;5.88;;;4.05;;
81396;SDS011;70852;49.908;8.126;2023-08-17T08:26:48;6.30;;;4.10;;
81396;SDS011;70852;49.908;8.126;2023-08-17T08:29:15;5.63;;;4.07;;
81396;SDS011;70852;49.908;8.126;2023-08-17T08:31:43;5.65;;;4.32;;
81396;SDS011;70852;49.908;8.126;2023-08-17T08:34:08;6.97;;;4.05;;
81396;SDS011;70852;49.908;8.126;2023-08-17T08:36:36;6.78;;;4.07;;
81396;SDS011;70852;49.908;8.126;2023-08-17T08:39:01;7.05;;;3.90;;
81396;SDS011;70852;49.908;8.126;2023-08-17T08:41:27;5.30;;;3.97;;
81396;SDS011;70852;49.908;8.126;2023-08-17T08:48:51;6.60;;;3.90;;
81396;SDS011;70852;49.908;8.126;2023-08-17T08:51:19;5.57;;;3.75;;
81396;SDS011;70852;49.908;8.126;2023-08-17T08:53:50;6.45;;;3.35;;
81396;SDS011;70852;49.908;8.126;2023-08-17T08:56:25;5.35;;;4.28;;
81396;SDS011;70852;49.908;8.126;2023-08-17T08:58:51;4.95;;;3.13;;
81396;SDS011;70852;49.908;8.126;2023-08-17T09:01:17;5.20;;;3.42;;
81396;SDS011;70852;49.908;8.126;2023-08-17T09:03:44;7.32;;;3.28;;
81396;SDS011;70852;49.908;8.126;2023-08-17T09:06:11;4.47;;;3.20;;
81396;SDS011;70852;49.908;8.126;2023-08-17T09:08:38;4.53;;;3.45;;
81396;SDS011;70852;49.908;8.126;2023-08-17T09:11:04;4.43;;;3.28;;
81396;SDS011;70852;49.908;8.126;2023-08-17T09:13:29;5.18;;;3.63;;
81396;SDS011;70852;49.908;8.126;2023-08-17T09:15:54;6.30;;;4.03;;
81396;SDS011;70852;49.908;8.126;2023-08-17T09:18:23;8.43;;;4.07;;
81396;SDS011;70852;49.908;8.126;2023-08-17T09:20:51;4.40;;;3.42;;
81396;SDS011;70852;49.908;8.126;2023-08-17T09:23:20;5.53;;;3.92;;
81396;SDS011;70852;49.908;8.126;2023-08-17T09:25:47;7.13;;;3.70;;
81396;SDS011;70852;49.908;8.126;2023-08-17T09:28:15;5.97;;;3.72;;
81396;SDS011;70852;49.908;8.126;2023-08-17T09:33:25;5.78;;;4.50;;
81396;SDS011;70852;49.908;8.126;2023-08-17T09:35:55;5.47;;;3.53;;
81396;SDS011;70852;49.908;8.126;2023-08-17T09:38:26;6.57;;;3.33;;
81396;SDS011;70852;49.908;8.126;2023-08-17T09:40:52;6.10;;;3.38;;
81396;SDS011;70852;49.908;8.126;2023-08-17T09:43:18;5.45;;;3.70;;
81396;SDS011;70852;49.908;8.126;2023-08-17T09:45:45;5.60;;;4.10;;
81396;SDS011;70852;49.908;8.126;2023-08-17T09:48:18;6.10;;;3.13;;
81396;SDS011;70852;49.908;8.126;2023-08-17T09:50:44;4.60;;;3.08;;
81396;SDS011;70852;49.908;8.126;2023-08-17T09:53:15;7.43;;;3.10;;
81396;SDS011;70852;49.908;8.126;2023-08-17T09:55:44;5.28;;;3.20;;
81396;SDS011;70852;49.908;8.126;2023-08-17T09:58:10;5.43;;;3.30;;
81396;SDS011;70852;49.908;8.126;2023-08-17T10:00:46;9.30;;;3.40;;
81396;SDS011;70852;49.908;8.126;2023-08-17T10:03:14;4.88;;;3.25;;
81396;SDS011;70852;49.908;8.126;2023-08-17T10:05:42;4.90;;;3.63;;
81396;SDS011;70852;49.908;8.126;2023-08-17T10:08:11;6.63;;;4.95;;
81396;SDS011;70852;49.908;8.126;2023-08-17T10:10:43;7.55;;;4.30;;
81396;SDS011;70852;49.908;8.126;2023-08-17T10:13:14;4.75;;;4.22;;
81396;SDS011;70852;49.908;8.126;2023-08-17T10:19:06;4.90;;;3.75;;
81396;SDS011;70852;49.908;8.126;2023-08-17T10:21:59;6.00;;;4.95;;
81396;SDS011;70852;49.908;8.126;2023-08-17T10:24:26;6.20;;;4.97;;
81396;SDS011;70852;49.908;8.126;2023-08-17T10:26:52;5.90;;;5.30;;
81396;SDS011;70852;49.908;8.126;2023-08-17T10:29:23;6.55;;;5.57;;
81396;SDS011;70852;49.908;8.126;2023-08-17T10:31:49;7.90;;;6.32;;
81396;SDS011;70852;49.908;8.126;2023-08-17T10:34:14;7.38;;;6.72;;
81396;SDS011;70852;49.908;8.126;2023-08-17T10:36:40;7.90;;;7.20;;
81396;SDS011;70852;49.908;8.126;2023-08-17T10:41:47;8.05;;;5.57;;
81396;SDS011;70852;49.908;8.126;2023-08-17T10:44:14;7.95;;;7.15;;
81396;SDS011;70852;49.908;8.126;2023-08-17T10:46:41;7.20;;;6.60;;
81396;SDS011;70852;49.908;8.126;2023-08-17T10:49:30;6.90;;;6.30;;
81396;SDS011;70852;49.908;8.126;2023-08-17T10:52:07;13.98;;;12.95;;
81396;SDS011;70852;49.908;8.126;2023-08-17T10:54:36;8.88;;;8.07;;
81396;SDS011;70852;49.908;8.126;2023-08-17T11:00:07;8.05;;;7.35;;
81396;SDS011;70852;49.908;8.126;2023-08-17T11:02:40;9.75;;;8.95;;
81396;SDS011;70852;49.908;8.126;2023-08-17T11:05:08;7.70;;;6.53;;
81396;SDS011;70852;49.908;8.126;2023-08-17T11:07:40;10.13;;;9.40;;
81396;SDS011;70852;49.908;8.126;2023-08-17T11:10:49;9.60;;;7.90;;
81396;SDS011;70852;49.908;8.126;2023-08-17T11:12:56;7.88;;;7.20;;
81396;SDS011;70852;49.908;8.126;2023-08-17T11:15:25;10.07;;;9.20;;
81396;SDS011;70852;49.908;8.126;2023-08-17T11:18:01;8.35;;;7.68;;
81396;SDS011;70852;49.908;8.126;2023-08-17T11:20:27;8.45;;;7.75;;
81396;SDS011;70852;49.908;8.126;2023-08-17T11:22:52;5.90;;;5.07;;
81396;SDS011;70852;49.908;8.126;2023-08-17T11:25:20;7.60;;;6.90;;
81396;SDS011;70852;49.908;8.126;2023-08-17T11:27:45;8.30;;;7.60;;
81396;SDS011;70852;49.908;8.126;2023-08-17T11:30:12;7.15;;;6.55;;
81396;SDS011;70852;49.908;8.126;2023-08-17T11:32:42;10.43;;;7.85;;
81396;SDS011;70852;49.908;8.126;2023-08-17T11:35:07;8.93;;;8.23;;
81396;SDS011;70852;49.908;8.126;2023-08-17T11:37:35;6.90;;;6.15;;
81396;SDS011;70852;49.908;8.126;2023-08-17T11:40:02;8.88;;;8.20;;
81396;SDS011;70852;49.908;8.126;2023-08-17T11:42:31;8.55;;;7.78;;
81396;SDS011;70852;49.908;8.126;2023-08-17T11:44:57;10.23;;;9.52;;
81396;SDS011;70852;49.908;8.126;2023-08-17T11:47:24;6.50;;;5.90;;
81396;SDS011;70852;49.908;8.126;2023-08-17T11:49:58;5.18;;;4.68;;
81396;SDS011;70852;49.908;8.126;2023-08-17T11:52:25;7.72;;;5.03;;
81396;SDS011;70852;49.908;8.126;2023-08-17T11:54:54;5.65;;;5.15;;
81396;SDS011;70852;49.908;8.126;2023-08-17T11:57:22;6.53;;;5.93;;
81396;SDS011;70852;49.908;8.126;2023-08-17T11:59:50;5.97;;;5.47;;
81396;SDS011;70852;49.908;8.126;2023-08-17T12:02:18;7.97;;;7.18;;
81396;SDS011;70852;49.908;8.126;2023-08-17T12:04:43;6.43;;;5.75;;
81396;SDS011;70852;49.908;8.126;2023-08-17T12:07:09;8.20;;;7.32;;
81396;SDS011;70852;49.908;8.126;2023-08-17T12:09:37;6.45;;;5.85;;
81396;SDS011;70852;49.908;8.126;2023-08-17T12:14:30;6.10;;;5.32;;
81396;SDS011;70852;49.908;8.126;2023-08-17T12:16:56;4.85;;;4.43;;
81396;SDS011;70852;49.908;8.126;2023-08-17T12:19:24;4.38;;;3.38;;
81396;SDS011;70852;49.908;8.126;2023-08-17T12:21:50;5.10;;;3.92;;
81396;SDS011;70852;49.908;8.126;2023-08-17T12:24:15;6.07;;;4.05;;
81396;SDS011;70852;49.908;8.126;2023-08-17T12:26:44;6.88;;;3.97;;
81396;SDS011;70852;49.908;8.126;2023-08-17T12:29:12;5.00;;;3.45;;
81396;SDS011;70852;49.908;8.126;2023-08-17T12:31:38;4.35;;;3.08;;
81396;SDS011;70852;49.908;8.126;2023-08-17T12:34:03;7.97;;;3.00;;
81396;SDS011;70852;49.908;8.126;2023-08-17T12:36:33;6.38;;;3.13;;
81396;SDS011;70852;49.908;8.126;2023-08-17T12:39:00;5.88;;;3.28;;
81396;SDS011;70852;49.908;8.126;2023-08-17T12:41:25;5.32;;;2.90;;
81396;SDS011;70852;49.908;8.126;2023-08-17T12:43:51;4.10;;;3.08;;
81396;SDS011;70852;49.908;8.126;2023-08-17T12:46:18;6.45;;;3.10;;
81396;SDS011;70852;49.908;8.126;2023-08-17T12:48:46;4.45;;;2.83;;
81396;SDS011;70852;49.908;8.126;2023-08-17T12:51:12;6.60;;;3.13;;
81396;SDS011;70852;49.908;8.126;2023-08-17T12:53:42;6.75;;;2.70;;
81396;SDS011;70852;49.908;8.126;2023-08-17T12:56:12;3.72;;;2.90;;
81396;SDS011;70852;49.908;8.126;2023-08-17T12:58:42;4.22;;;2.83;;
81396;SDS011;70852;49.908;8.126;2023-08-17T13:01:09;5.15;;;2.85;;
81396;SDS011;70852;49.908;8.126;2023-08-17T13:03:34;4.22;;;3.05;;
81396;SDS011;70852;49.908;8.126;2023-08-17T13:06:02;5.55;;;3.22;;
81396;SDS011;70852;49.908;8.126;2023-08-17T13:08:28;4.93;;;3.05;;
81396;SDS011;70852;49.908;8.126;2023-08-17T13:10:53;6.10;;;2.83;;
81396;SDS011;70852;49.908;8.126;2023-08-17T13:13:18;5.00;;;2.72;;
81396;SDS011;70852;49.908;8.126;2023-08-17T13:15:45;4.50;;;2.97;;
81396;SDS011;70852;49.908;8.126;2023-08-17T13:18:15;5.55;;;2.63;;
81396;SDS011;70852;49.908;8.126;2023-08-17T13:20:41;4.68;;;3.00;;
81396;SDS011;70852;49.908;8.126;2023-08-17T13:23:06;5.25;;;2.55;;
81396;SDS011;70852;49.908;8.126;2023-08-17T13:25:34;5.00;;;2.90;;
81396;SDS011;70852;49.908;8.126;2023-08-17T13:28:02;4.30;;;3.75;;
81396;SDS011;70852;49.908;8.126;2023-08-17T13:30:28;5.78;;;3.03;;
81396;SDS011;70852;49.908;8.126;2023-08-17T13:32:55;5.78;;;2.88;;
81396;SDS011;70852;49.908;8.126;2023-08-17T13:35:21;4.78;;;2.92;;
81396;SDS011;70852;49.908;8.126;2023-08-17T13:37:52;4.90;;;3.22;;
81396;SDS011;70852;49.908;8.126;2023-08-17T13:40:18;3.83;;;3.05;;
81396;SDS011;70852;49.908;8.126;2023-08-17T13:42:46;4.95;;;2.90;;
81396;SDS011;70852;49.908;8.126;2023-08-17T13:45:11;4.18;;;3.22;;
81396;SDS011;70852;49.908;8.126;2023-08-17T13:47:37;4.35;;;3.95;;
81396;SDS011;70852;49.908;8.126;2023-08-17T13:50:02;5.43;;;4.75;;
81396;SDS011;70852;49.908;8.126;2023-08-17T13:52:28;5.88;;;3.92;;
81396;SDS011;70852;49.908;8.126;2023-08-17T13:54:56;8.10;;;3.83;;
81396;SDS011;70852;49.908;8.126;2023-08-17T13:57:24;6.00;;;4.47;;
81396;SDS011;70852;49.908;8.126;2023-08-17T13:59:51;4.70;;;3.40;;
81396;SDS011;70852;49.908;8.126;2023-08-17T14:02:19;5.80;;;5.15;;
81396;SDS011;70852;49.908;8.126;2023-08-17T14:04:45;4.40;;;3.63;;
81396;SDS011;70852;49.908;8.126;2023-08-17T14:07:10;4.88;;;3.38;;
81396;SDS011;70852;49.908;8.126;2023-08-17T14:09:36;5.00;;;2.90;;
81396;SDS011;70852;49.908;8.126;2023-08-17T14:12:01;6.63;;;2.90;;
81396;SDS011;70852;49.908;8.126;2023-08-17T14:14:29;4.95;;;2.95;;
81396;SDS011;70852;49.908;8.126;2023-08-17T14:16:57;5.03;;;3.20;;
81396;SDS011;70852;49.908;8.126;2023-08-17T14:19:23;4.28;;;2.85;;
81396;SDS011;70852;49.908;8.126;2023-08-17T14:21:48;4.82;;;2.83;;
81396;SDS011;70852;49.908;8.126;2023-08-17T14:24:16;5.63;;;3.40;;
81396;SDS011;70852;49.908;8.126;2023-08-17T14:26:41;6.53;;;3.42;;
81396;SDS011;70852;49.908;8.126;2023-08-17T14:29:06;4.50;;;2.80;;
81396;SDS011;70852;49.908;8.126;2023-08-17T14:31:32;4.45;;;3.35;;
81396;SDS011;70852;49.908;8.126;2023-08-17T14:33:59;5.55;;;3.00;;
81396;SDS011;70852;49.908;8.126;2023-08-17T14:36:24;4.15;;;2.92;;
81396;SDS011;70852;49.908;8.126;2023-08-17T14:38:50;5.40;;;3.08;;
81396;SDS011;70852;49.908;8.126;2023-08-17T14:41:15;3.53;;;3.00;;
81396;SDS011;70852;49.908;8.126;2023-08-17T14:43:42;4.45;;;2.63;;
81396;SDS011;70852;49.908;8.126;2023-08-17T14:46:08;4.05;;;2.80;;
81396;SDS011;70852;49.908;8.126;2023-08-17T14:48:38;5.18;;;2.85;;
81396;SDS011;70852;49.908;8.126;2023-08-17T14:51:06;4.13;;;2.63;;
81396;SDS011;70852;49.908;8.126;2023-08-17T14:53:31;3.72;;;2.30;;
81396;SDS011;70852;49.908;8.126;2023-08-17T14:55:59;3.38;;;2.47;;
81396;SDS011;70852;49.908;8.126;2023-08-17T14:58:24;2.90;;;2.00;;
81396;SDS011;70852;49.908;8.126;2023-08-17T15:00:52;6.43;;;2.42;;